createdAt,value
2023-05-06T03:11:17.264Z,81.97269842612543
2023-05-06T03:14:16.888Z,81.71488123922346
2023-05-06T03:17:16.854Z,81.77559032367715
2023-05-06T03:21:16.317Z,82.50122756062022
2023-05-06T03:24:16.781Z,82.56871791644343
2023-05-06T03:27:16.598Z,82.56616166171861
2023-05-06T03:31:15.797Z,83.20818549199547
2023-05-06T03:34:16.307Z,83.25256230808496
2023-05-06T03:37:16.291Z,83.17665806479783
2023-05-06T03:41:16.199Z,83.4554566723569
2023-05-06T03:44:16.509Z,83.91116974355053
2023-05-06T03:47:17.592Z,83.81698416523774
2023-05-06T03:51:15.983Z,84.21022395247785
2023-05-06T03:54:16.257Z,83.9773621787662
2023-05-06T03:57:16.299Z,84.16351012626461
2023-05-06T04:01:18.212Z,84.2290993300647
2023-05-06T04:04:16.990Z,84.1687971418425
2023-05-06T04:07:16.553Z,84.5525999366125
2023-05-06T04:11:16.400Z,84.80364898082098
2023-05-06T04:14:16.910Z,84.22936067012738
2023-05-06T04:17:16.494Z,84.51462428801099
2023-05-06T04:21:16.244Z,85.03837659372782
2023-05-06T04:24:16.495Z,84.83031891132708
2023-05-06T04:27:16.564Z,84.95857192306131
2023-05-06T04:31:16.723Z,84.90677591604144
2023-05-06T04:34:17.138Z,85.21579152221764
2023-05-06T04:37:16.782Z,84.98354910306094
2023-05-06T04:41:16.040Z,85.28284313071596
2023-05-06T04:44:16.341Z,85.69640250873265
2023-05-06T04:47:16.323Z,86.10756410057901
2023-05-06T04:51:16.071Z,86.54433877744808
2023-05-06T04:54:16.353Z,86.73647807172168
2023-05-06T04:57:16.321Z,87.19318486725093
2023-05-06T05:01:19.605Z,87.09260557594358
2023-05-06T05:04:17.058Z,87.3935315901354
2023-05-06T05:07:16.742Z,87.46511563317881
2023-05-06T05:11:17.012Z,87.95104796018917
2023-05-06T05:14:16.351Z,88.29998359795003
2023-05-06T05:17:16.548Z,88.67064314334056
2023-05-06T05:21:16.533Z,89.81977982908016
2023-05-06T05:24:16.946Z,89.96015664878995
2023-05-06T05:27:16.897Z,90.11297244010322
2023-05-06T05:31:16.804Z,90.5221330301771
2023-05-06T05:34:16.841Z,90.53253605236817
2023-05-06T05:37:16.841Z,90.48413174295901
2023-05-06T05:41:17.570Z,91.0611044121517
2023-05-06T05:44:16.710Z,90.93882550857002
2023-05-06T05:47:16.660Z,91.02642794945461
2023-05-06T05:51:16.374Z,91.8379982105883
2023-05-06T05:54:16.786Z,92.70983833365729
2023-05-06T05:57:16.754Z,93.9165234087267
2023-05-06T06:01:16.830Z,95.56260198642136
2023-05-06T06:04:17.001Z,96.60378261934137
2023-05-06T06:07:16.878Z,98.19751664043689
2023-05-06T06:11:17.090Z,98.63755545140299
2023-05-06T06:14:17.110Z,97.94494738224104
2023-05-06T06:17:17.054Z,98.50966906715558
2023-05-06T06:21:16.228Z,98.84959047379319
2023-05-06T06:24:16.530Z,98.31009802811371
2023-05-06T06:27:16.385Z,98.20213099384684
2023-05-06T06:31:15.952Z,98.61063139229117
2023-05-06T06:34:16.216Z,98.34402755193359
2023-05-06T06:37:16.080Z,98.99054224522584
2023-05-06T06:41:17.067Z,98.27572628734679
2023-05-06T06:44:17.210Z,98.14979999245926
2023-05-06T06:47:17.107Z,97.83839435460214
2023-05-06T06:51:16.438Z,97.37921307506598
2023-05-06T06:54:16.849Z,97.17439134147142
2023-05-06T06:57:16.820Z,96.73598438312948
2023-05-06T07:01:16.339Z,95.7831476554317
2023-05-06T07:04:16.763Z,94.9314484891237
2023-05-06T07:07:16.861Z,94.41747593113264
2023-05-06T07:11:16.521Z,93.27730175914758
2023-05-06T07:14:16.770Z,94.12091074048848
2023-05-06T07:17:17.053Z,95.07272577701018
2023-05-06T07:21:16.726Z,95.84966892480634
2023-05-06T07:24:17.125Z,96.08230079507369
2023-05-06T07:27:16.988Z,98.0651142785654
2023-05-06T07:31:16.506Z,97.1686798246502
2023-05-06T07:34:16.961Z,97.4033110024927
2023-05-06T07:37:16.680Z,97.32500498837211
2023-05-06T07:41:16.727Z,96.96799091474128
2023-05-06T07:44:17.071Z,96.82746694523293
2023-05-06T07:47:26.426Z,96.4635993853258
2023-05-06T07:51:16.366Z,96.9606760093442
2023-05-06T07:54:16.405Z,97.0959519688907
2023-05-06T07:57:16.521Z,96.69667871817984
2023-05-06T08:01:16.556Z,96.227871724763
2023-05-06T08:04:16.535Z,96.21167003042757
2023-05-06T08:07:16.660Z,95.29366565906142
2023-05-06T08:11:19.271Z,94.3853509215805
2023-05-06T08:14:16.788Z,93.43588877201195
2023-05-06T08:17:17.052Z,93.1120188584895
2023-05-06T08:21:16.509Z,92.85464265517362
2023-05-06T08:24:16.951Z,91.77667924195747
2023-05-06T08:27:16.940Z,90.58886586846302
2023-05-06T08:31:16.102Z,91.09097457878673
2023-05-06T08:34:18.675Z,91.31891476109635
2023-05-06T08:37:16.308Z,91.53703804678129
2023-05-06T08:41:18.826Z,91.88036085412402
2023-05-06T08:44:22.308Z,91.3838418661341
2023-05-06T08:47:17.219Z,91.3236474121105
2023-05-06T08:51:17.800Z,90.81892722777987
2023-05-06T08:54:17.669Z,90.74023633284995
2023-05-06T08:57:17.518Z,89.81386290883303
2023-05-06T09:01:16.814Z,88.96988381848918
2023-05-06T09:04:18.193Z,88.65841538670072
2023-05-06T09:07:16.549Z,88.49829516074335
2023-05-06T09:11:21.305Z,88.39321470989637
2023-05-06T09:14:17.526Z,88.28671287291617
2023-05-06T09:17:17.982Z,87.03318663790968
2023-05-06T09:21:16.653Z,86.22311648622178
2023-05-06T09:24:17.941Z,86.35993111546513
2023-05-06T09:27:16.985Z,86.84504524046264
2023-05-06T09:31:16.185Z,85.21756641463428
2023-05-06T09:34:17.717Z,85.42541814673802
2023-05-06T09:37:16.527Z,84.30703566275128
2023-05-06T09:41:19.619Z,83.26429525120017
2023-05-06T09:44:17.149Z,82.80321271029861
2023-05-06T09:47:16.989Z,81.10330623746788
2023-05-06T09:51:16.896Z,78.34295393786968
2023-05-06T09:54:18.368Z,77.05926994360047
2023-05-06T09:57:18.756Z,75.30328366443294
2023-05-06T10:01:32.742Z,72.81576168118193
2023-05-06T10:04:17.492Z,70.30587611538444
2023-05-06T10:07:20.551Z,69.96499198671798
2023-05-06T10:11:17.095Z,68.25653646702754
2023-05-06T10:14:17.593Z,68.05023308255522
2023-05-06T10:17:18.618Z,66.33988846174613
2023-05-06T10:21:23.329Z,64.55978488921522
2023-05-06T10:24:22.601Z,64.5104617250152
2023-05-06T10:27:21.749Z,64.63405211315498
2023-05-06T10:31:16.153Z,63.31651700141192
2023-05-06T10:34:19.587Z,62.03572154775647
2023-05-06T10:37:16.750Z,60.70083817757126
2023-05-06T10:41:18.170Z,60.667236528370736
2023-05-06T10:44:16.941Z,59.66480802241846
2023-05-06T10:47:16.880Z,58.98432310153957
2023-05-06T10:51:25.570Z,58.5928477708865
2023-05-06T10:54:24.023Z,58.40363812061634
2023-05-06T10:57:17.296Z,56.27934477904328
2023-05-06T11:01:16.118Z,57.184949246160095
2023-05-06T11:04:18.810Z,56.47963268621039
2023-05-06T11:07:22.735Z,55.95266451220073
2023-05-06T11:12:21.990Z,54.87379289685299
2023-05-06T11:14:26.367Z,55.21249837912903
2023-05-06T11:17:32.804Z,55.847164505079796
2023-05-06T11:21:42.003Z,54.62025505516536
2023-05-06T11:24:28.093Z,53.74432297298406
2023-05-06T11:27:28.906Z,53.22605312096568
2023-05-06T11:31:17.120Z,53.27671545722625
2023-05-06T11:34:23.080Z,54.06861894920711
2023-05-06T11:37:24.367Z,55.16328684455914
2023-05-06T11:41:17.936Z,55.767372037515614
2023-05-06T11:44:25.709Z,53.487550471710016
2023-05-06T11:47:20.299Z,51.68604159811129
2023-05-06T11:51:21.483Z,52.7578177751741
2023-05-06T11:54:19.562Z,51.35488515296232
2023-05-06T11:57:19.489Z,49.90637141353174
2023-05-06T12:01:16.016Z,50.25189410971688
2023-05-06T12:04:16.237Z,50.51013925006565
2023-05-06T12:07:16.542Z,49.86664034928181
2023-05-06T12:11:16.324Z,48.12783923398341
2023-05-06T12:14:17.227Z,47.151248071086364
2023-05-06T12:17:16.750Z,48.626021008466836
2023-05-06T12:21:21.733Z,48.69825217098568
2023-05-06T12:24:26.685Z,47.93733783016394
2023-05-06T12:27:28.952Z,47.57054197165106
2023-05-06T12:31:20.261Z,46.248214461581625
2023-05-06T12:34:34.638Z,46.67389749760123
2023-05-06T12:37:24.183Z,47.55457619367392
2023-05-06T12:41:16.543Z,47.508095525540675
2023-05-06T12:44:32.441Z,46.27263779861085
2023-05-06T12:47:19.194Z,46.104500676780916
2023-05-06T12:51:17.324Z,46.466929899258766
2023-05-06T12:54:28.702Z,48.15938921703293
2023-05-06T12:57:16.860Z,45.86788837469747
2023-05-06T13:01:16.061Z,45.59409379495346
2023-05-06T13:04:16.434Z,45.3730178214686
2023-05-06T13:07:16.399Z,44.678953213979035
2023-05-06T13:11:16.453Z,43.207017249570846
2023-05-06T13:14:16.810Z,43.52874171916296
2023-05-06T13:17:16.861Z,42.15516248300859
2023-05-06T13:21:15.832Z,43.44156410168477
2023-05-06T13:24:16.354Z,43.576465828296726
2023-05-06T13:27:16.288Z,43.711387276215014
2023-05-06T13:31:15.918Z,43.51287595555853
2023-05-06T13:34:16.290Z,41.84566846947635
2023-05-06T13:37:16.114Z,42.343279600212966
2023-05-06T13:41:16.487Z,42.70044965413946
2023-05-06T13:44:16.096Z,43.04597156180793
2023-05-06T13:47:16.261Z,42.51354515296219
2023-05-06T13:51:15.633Z,42.67774218122739
2023-05-06T13:54:16.323Z,42.07459826460477
2023-05-06T13:57:15.974Z,40.56273271716002
2023-05-06T14:01:15.733Z,40.2287555696833
2023-05-06T14:04:16.222Z,39.35525682141314
2023-05-06T14:07:16.157Z,40.568674904969384
2023-05-06T14:11:16.216Z,41.00240837712738
2023-05-06T14:14:16.496Z,41.00856841282079
2023-05-06T14:17:16.893Z,40.61037892358326
2023-05-06T14:21:16.038Z,42.05671500183703
2023-05-06T14:24:16.147Z,41.916233622826034
2023-05-06T14:27:16.278Z,42.853294112394536
2023-05-06T14:31:15.783Z,42.40842500456721
2023-05-06T14:34:16.166Z,42.560766785459585
2023-05-06T14:37:16.483Z,42.81838067521624
2023-05-06T14:41:16.380Z,43.21097065438191
2023-05-06T14:44:16.721Z,43.61506176808534
2023-05-06T14:47:17.090Z,43.65633986962402
2023-05-06T14:51:16.235Z,42.5842275857842
2023-05-06T14:54:16.690Z,42.906379256153706
2023-05-06T14:57:16.634Z,43.15825172698235
2023-05-06T15:01:16.267Z,43.14649595715965
2023-05-06T15:04:16.714Z,42.94147518481799
2023-05-06T15:07:16.778Z,42.753995522522736
2023-05-06T15:11:15.632Z,42.314615622857474
2023-05-06T15:14:16.154Z,43.70806720849495
2023-05-06T15:17:15.909Z,43.058205889964064
2023-05-06T15:21:17.555Z,42.63076500561792
2023-05-06T15:24:16.034Z,42.88832498332383
2023-05-06T15:27:16.037Z,43.11643083023134
2023-05-06T15:31:16.433Z,43.221710684753525
2023-05-06T15:34:16.703Z,42.62448701305104
2023-05-06T15:37:19.351Z,42.70648108840385
2023-05-06T15:41:15.965Z,42.443106241248174
2023-05-06T15:44:16.638Z,42.72390018642754
2023-05-06T15:47:16.473Z,42.14433091440111
2023-05-06T15:51:16.048Z,42.47191172242283
2023-05-06T15:54:18.239Z,42.92274855354909
2023-05-06T15:57:16.487Z,42.60712264744449
2023-05-06T16:01:16.605Z,41.758136666816974
2023-05-06T16:04:16.671Z,42.03920529340474
2023-05-06T16:07:16.647Z,42.05082805471535
2023-05-06T16:11:15.557Z,42.285015431676776
2023-05-06T16:14:16.295Z,42.13275919456516
2023-05-06T16:17:16.128Z,43.449861613222026
2023-05-06T16:21:15.951Z,43.58993770398922
2023-05-06T16:24:16.540Z,43.45516354869098
2023-05-06T16:27:16.346Z,43.461041156936645
2023-05-06T16:31:15.884Z,42.278773999166425
2023-05-06T16:34:15.906Z,42.68250376598685
2023-05-06T16:37:16.051Z,42.3723761244043
2023-05-06T16:41:16.655Z,42.37214842807065
2023-05-06T16:44:16.759Z,41.35988934404353
2023-05-06T16:47:17.017Z,41.93911866459661
2023-05-06T16:51:16.532Z,41.5646401772855
2023-05-06T16:54:16.860Z,40.95622818652361
2023-05-06T16:57:17.349Z,41.669862930128474
2023-05-06T17:01:16.466Z,41.745789399391995
2023-05-06T17:04:16.855Z,41.83929167377695
2023-05-06T17:07:16.951Z,41.30140299350555
2023-05-06T17:11:15.762Z,42.13708147174556
2023-05-06T17:14:16.072Z,42.21873446121411
2023-05-06T17:17:16.178Z,41.70449469750965
2023-05-06T17:21:16.722Z,41.73356373610832
2023-05-06T17:24:25.959Z,41.29550679548666
2023-05-06T17:27:16.934Z,40.68821669928602
2023-05-06T17:31:16.260Z,40.052136296507676
2023-05-06T17:34:16.073Z,40.49008074259055
2023-05-06T17:37:15.960Z,40.32094519065369
2023-05-06T17:41:16.258Z,41.06785523653744
2023-05-06T17:44:18.216Z,40.5371254950744
2023-05-06T17:47:17.422Z,40.5139720848007
2023-05-06T17:51:17.380Z,41.236870074697734
2023-05-06T17:54:17.005Z,41.796169515008096
2023-05-06T17:57:16.745Z,41.55131339348626
2023-05-06T18:01:16.385Z,42.20916826631748
2023-05-06T18:04:16.814Z,42.34856540497782
2023-05-06T18:07:17.720Z,42.487851167966944
2023-05-06T18:11:16.673Z,42.97571598625678
2023-05-06T18:14:17.946Z,43.99786343219792
2023-05-06T18:17:17.831Z,43.34653588641819
2023-05-06T18:21:16.198Z,43.34590111054824
2023-05-06T18:24:17.728Z,43.217621676219856
2023-05-06T18:27:17.112Z,43.58288839463054
2023-05-06T18:31:15.497Z,43.373071165931286
2023-05-06T18:34:15.880Z,42.977857685703086
2023-05-06T18:37:15.919Z,43.76081550815954
2023-05-06T18:41:16.472Z,44.276217452975864
2023-05-06T18:44:16.861Z,44.33357435860914
2023-05-06T18:47:18.268Z,44.80794474564573
2023-05-06T18:51:17.091Z,45.0848565155437
2023-05-06T18:54:17.500Z,45.321532850244026
2023-05-06T18:57:17.134Z,45.73184760618498
2023-05-06T19:01:16.038Z,46.08331782942809
2023-05-06T19:04:16.360Z,46.267311569284026
2023-05-06T19:07:16.813Z,46.43371720971855
2023-05-06T19:11:27.619Z,46.70422488272129
2023-05-06T19:14:17.264Z,46.34449540305513
2023-05-06T19:17:16.894Z,46.69564109324535
2023-05-06T19:21:16.095Z,46.83301684234624
2023-05-06T19:24:16.489Z,46.739288252607544
2023-05-06T19:27:17.592Z,46.709856242444175
2023-05-06T19:31:17.380Z,46.72581694792151
2023-05-06T19:34:16.907Z,46.886206623161414
2023-05-06T19:37:17.787Z,46.97206445700407
2023-05-06T19:41:16.108Z,47.22451369107819
2023-05-06T19:44:16.442Z,47.44272176289717
2023-05-06T19:47:16.634Z,47.557031536774915
2023-05-06T19:51:16.513Z,47.94178855266373
2023-05-06T19:54:16.793Z,48.60425647814071
2023-05-06T19:57:17.890Z,49.168011803636944
2023-05-06T20:01:17.197Z,48.48009830829806
2023-05-06T20:04:16.591Z,48.541748715442274
2023-05-06T20:07:17.406Z,48.482957571110866
2023-05-06T20:11:16.463Z,48.653506064079906
2023-05-06T20:14:16.877Z,49.06064649703821
2023-05-06T20:17:17.213Z,49.75598945442872
2023-05-06T20:21:16.729Z,51.33301108584727
2023-05-06T20:24:17.012Z,50.56207665352824
2023-05-06T20:27:17.084Z,51.07913394076471
2023-05-06T20:31:16.230Z,51.98521501219141
2023-05-06T20:34:18.938Z,52.17362387802209
2023-05-06T20:37:16.712Z,52.74024413515632
2023-05-06T20:41:16.299Z,53.471972102347564
2023-05-06T20:44:16.671Z,53.700373572426834
2023-05-06T20:47:16.867Z,53.904750771422265
2023-05-06T20:51:16.584Z,54.28104883501376
2023-05-06T20:54:16.619Z,54.81786408631096
2023-05-06T20:57:16.879Z,54.95335065160507
2023-05-06T21:01:16.329Z,55.866680930528084
2023-05-06T21:04:17.701Z,56.133566864870794
2023-05-06T21:07:16.066Z,56.17717008444547
2023-05-06T21:11:15.776Z,56.614630730493445
2023-05-06T21:14:16.013Z,56.94474649952538
2023-05-06T21:17:16.161Z,57.166574400054046
2023-05-06T21:21:16.325Z,57.41435447486835
2023-05-06T21:24:16.846Z,57.38993708583627
2023-05-06T21:27:16.817Z,57.58160977110662
2023-05-06T21:31:16.477Z,57.93873132010835
2023-05-06T21:34:16.749Z,58.23786936426917
2023-05-06T21:37:16.710Z,58.174209285838764
2023-05-06T21:41:16.635Z,58.61508597690388
2023-05-06T21:44:16.162Z,59.63024708892397
2023-05-06T21:47:16.126Z,59.49199315891856
2023-05-06T21:51:16.660Z,59.41040767042337
2023-05-06T21:54:17.118Z,59.494834848963094
2023-05-06T21:57:16.889Z,59.59618685653904
2023-05-06T22:01:16.967Z,59.82023526165228
2023-05-06T22:04:16.759Z,60.224453307929004
2023-05-06T22:07:16.643Z,60.20472587412813
2023-05-06T22:11:16.250Z,60.41237958538104
2023-05-06T22:14:16.161Z,60.63788260387524
2023-05-06T22:17:15.993Z,60.9210729346389
2023-05-06T22:21:15.710Z,60.88303917385337
2023-05-06T22:24:16.323Z,61.16650650885044
2023-05-06T22:27:16.147Z,61.28263076587329
2023-05-06T22:31:15.825Z,61.67744557009579
2023-05-06T22:34:15.922Z,62.004684028788525
2023-05-06T22:37:16.280Z,62.765793145867626
2023-05-06T22:41:16.686Z,62.82463989453845
2023-05-06T22:44:16.407Z,62.710076680174794
2023-05-06T22:47:16.425Z,62.83197765844474
2023-05-06T22:51:16.681Z,62.942507881690915
2023-05-06T22:54:16.712Z,63.31553914496971
2023-05-06T22:57:19.118Z,63.546253687837115
2023-05-06T23:01:16.688Z,63.89467576992378
2023-05-06T23:04:16.592Z,63.92681282142882
2023-05-06T23:07:16.547Z,64.24197138353476
2023-05-06T23:11:16.018Z,64.39076844641411
2023-05-06T23:14:17.290Z,64.68354942891034
2023-05-06T23:17:16.247Z,64.64039229771586
2023-05-06T23:21:16.128Z,64.7341541423439
2023-05-06T23:24:16.575Z,64.88340768036524
2023-05-06T23:27:16.586Z,65.04084026877005
2023-05-06T23:31:15.514Z,65.694769905509
2023-05-06T23:34:15.700Z,65.64834402661211
2023-05-06T23:37:17.709Z,65.93000845519046
2023-05-06T23:41:16.453Z,66.46410549045991
2023-05-06T23:44:16.965Z,66.60998954770949
2023-05-06T23:47:16.877Z,66.72162229389671
2023-05-06T23:51:15.609Z,67.11048651674027
2023-05-06T23:54:15.959Z,67.47791698619274
2023-05-06T23:57:16.038Z,67.65550839325425
